createdAt,value
2022-08-05T00:04:35.930Z,4.43
2022-08-05T00:11:30.305Z,5.10
2022-08-05T00:18:22.644Z,5.30
2022-08-05T00:25:12.691Z,6.22
2022-08-05T00:32:13.013Z,6.28
2022-08-05T00:39:00.877Z,6.70
2022-08-05T00:45:47.880Z,6.80
2022-08-05T00:52:35.960Z,7.88
2022-08-05T00:59:24.698Z,8.68
2022-08-05T01:06:15.469Z,7.95
2022-08-05T01:13:19.477Z,8.30
2022-08-05T01:20:30.285Z,6.88
2022-08-05T01:27:40.978Z,6.65
2022-08-05T01:34:51.642Z,6.63
2022-08-05T01:41:39.790Z,5.68
2022-08-05T01:48:30.900Z,6.10
2022-08-05T01:55:22.571Z,6.15
2022-08-05T02:02:10.666Z,5.53
2022-08-05T02:08:58.576Z,5.40
2022-08-05T02:15:52.745Z,5.53
2022-08-05T02:22:46.763Z,4.65
2022-08-05T02:29:59.094Z,5.18
2022-08-05T02:36:53.626Z,4.97
2022-08-05T02:44:02.533Z,4.95
2022-08-05T03:04:38.972Z,5.60
2022-08-05T03:11:55.827Z,5.13
2022-08-05T03:18:33.422Z,5.82
2022-08-05T03:26:03.816Z,6.00
2022-08-05T03:32:31.087Z,5.00
2022-08-05T03:39:20.049Z,5.97
2022-08-05T03:46:14.986Z,6.13
2022-08-05T03:55:07.105Z,6.10
2022-08-05T04:00:19.545Z,6.20
2022-08-05T04:07:09.742Z,5.95
2022-08-05T04:13:55.813Z,5.72
2022-08-05T04:20:44.679Z,5.68
2022-08-05T04:27:43.892Z,5.97
2022-08-05T04:34:43.014Z,5.85
2022-08-05T04:41:36.821Z,5.93
2022-08-05T04:48:27.672Z,5.97
2022-08-05T04:55:15.212Z,6.88
2022-08-05T05:02:35.240Z,6.80
2022-08-05T05:09:09.976Z,6.60
2022-08-05T05:16:05.844Z,6.53
2022-08-05T05:22:51.684Z,7.18
2022-08-05T05:29:40.887Z,6.85
2022-08-05T05:36:47.176Z,6.78
2022-08-05T05:43:58.556Z,6.95
2022-08-05T05:57:51.895Z,6.78
2022-08-05T06:04:35.809Z,6.65
2022-08-05T06:11:24.246Z,6.32
2022-08-05T06:18:10.309Z,6.18
2022-08-05T06:24:59.572Z,5.75
2022-08-05T06:31:47.633Z,5.95
2022-08-05T06:38:37.287Z,5.70
2022-08-05T06:45:43.952Z,5.55
2022-08-05T06:52:36.578Z,5.88
2022-08-05T06:59:23.095Z,5.60
2022-08-05T07:06:15.181Z,5.95
2022-08-05T07:13:16.445Z,5.80
2022-08-05T07:20:38.859Z,6.88
2022-08-05T07:27:27.279Z,5.15
2022-08-05T07:34:32.719Z,6.00
2022-08-05T07:42:13.278Z,5.53
2022-08-05T07:49:01.711Z,5.80
2022-08-05T08:03:15.017Z,6.05
2022-08-05T08:16:50.821Z,5.82
2022-08-05T08:24:02.488Z,5.50
2022-08-05T08:30:47.984Z,5.25
2022-08-05T08:37:38.330Z,5.60
2022-08-05T08:45:19.741Z,5.35
2022-08-05T08:52:03.648Z,5.90
2022-08-05T08:58:53.340Z,5.35
2022-08-05T09:06:09.273Z,5.78
2022-08-05T09:12:44.596Z,5.85
2022-08-05T09:19:55.034Z,5.70
2022-08-05T09:26:45.484Z,5.80
2022-08-05T09:33:35.111Z,5.93
2022-08-05T09:40:41.112Z,5.35
2022-08-05T09:47:55.024Z,5.75
2022-08-05T09:54:42.005Z,5.47
2022-08-05T10:01:36.893Z,5.35
2022-08-05T10:08:36.182Z,5.55
2022-08-05T10:15:27.808Z,5.60
2022-08-05T10:22:30.265Z,5.28
2022-08-05T10:29:24.180Z,5.10
2022-08-05T10:36:26.903Z,4.82
2022-08-05T10:43:35.918Z,5.07
2022-08-05T10:50:36.639Z,5.07
2022-08-05T10:57:32.126Z,4.88
2022-08-05T11:04:26.146Z,5.03
2022-08-05T11:11:44.460Z,4.95
2022-08-05T11:18:38.611Z,5.15
2022-08-05T11:26:04.417Z,4.87
2022-08-05T11:32:49.962Z,5.40
2022-08-05T11:40:00.448Z,5.10
2022-08-05T11:47:10.225Z,4.90
2022-08-05T11:53:58.274Z,5.00
2022-08-05T12:00:47.057Z,4.93
2022-08-05T12:08:07.485Z,5.25
2022-08-05T12:14:47.480Z,5.13
2022-08-05T12:21:39.310Z,4.95
2022-08-05T12:28:38.629Z,5.70
2022-08-05T12:35:37.163Z,5.82
2022-08-05T12:42:25.989Z,5.65
2022-08-05T12:49:18.949Z,5.68
2022-08-05T12:56:04.759Z,5.50
2022-08-05T13:03:12.163Z,5.53
2022-08-05T13:10:04.323Z,5.78
2022-08-05T13:16:56.517Z,5.57
2022-08-05T13:23:50.687Z,6.07
2022-08-05T13:30:40.555Z,6.00
2022-08-05T13:37:34.288Z,5.72
2022-08-05T13:44:20.482Z,6.05
2022-08-05T13:51:16.168Z,5.88
2022-08-05T13:58:04.197Z,6.45
2022-08-05T14:05:03.793Z,5.65
2022-08-05T14:12:04.488Z,6.65
2022-08-05T14:18:57.397Z,6.13
2022-08-05T14:25:53.905Z,6.05
2022-08-05T14:32:42.765Z,5.93
2022-08-05T14:39:28.473Z,6.32
2022-08-05T14:46:14.671Z,6.40
2022-08-05T14:53:03.091Z,6.75
2022-08-05T14:59:51.741Z,8.70
2022-08-05T15:06:38.608Z,9.52
2022-08-05T15:13:45.993Z,11.57
2022-08-05T15:20:35.780Z,14.30
2022-08-05T15:27:21.296Z,14.95
2022-08-05T15:34:31.267Z,16.58
2022-08-05T15:41:23.005Z,16.10
2022-08-05T15:48:09.968Z,14.55
2022-08-05T15:55:03.680Z,13.73
2022-08-05T16:01:52.500Z,12.80
2022-08-05T16:08:39.915Z,13.25
2022-08-05T16:15:32.685Z,11.57
2022-08-05T16:22:27.401Z,11.05
2022-08-05T16:29:13.412Z,11.02
2022-08-05T16:36:09.760Z,9.07
2022-08-05T16:42:55.286Z,8.70
2022-08-05T16:49:41.922Z,8.07
2022-08-05T16:56:33.789Z,7.38
2022-08-05T17:03:20.105Z,7.07
2022-08-05T17:10:06.484Z,5.25
2022-08-05T17:16:54.969Z,5.15
2022-08-05T17:24:03.533Z,4.45
2022-08-05T17:37:45.503Z,4.40
2022-08-05T17:44:33.848Z,4.22
2022-08-05T17:51:21.514Z,4.00
2022-08-05T17:58:12.495Z,4.60
2022-08-05T18:04:58.576Z,4.00
2022-08-05T18:11:44.751Z,4.25
2022-08-05T18:18:39.873Z,4.03
2022-08-05T18:25:33.127Z,3.75
2022-08-05T18:32:18.878Z,4.22
2022-08-05T18:39:22.259Z,4.18
2022-08-05T18:46:14.499Z,4.00
2022-08-05T18:52:59.929Z,4.22
2022-08-05T19:00:02.425Z,4.40
2022-08-05T19:06:48.960Z,4.50
2022-08-05T19:13:36.066Z,4.40
2022-08-05T19:20:25.406Z,4.03
2022-08-05T19:27:11.568Z,4.18
2022-08-05T19:33:58.956Z,4.43
2022-08-05T19:40:47.388Z,4.47
2022-08-05T19:47:33.441Z,4.35
2022-08-05T19:54:27.094Z,4.55
2022-08-05T20:01:28.406Z,4.45
2022-08-05T20:08:15.229Z,4.05
2022-08-05T20:15:00.806Z,4.47
2022-08-05T20:21:49.640Z,4.53
2022-08-05T20:28:36.447Z,4.80
2022-08-05T20:35:22.328Z,4.25
2022-08-05T20:42:11.753Z,4.68
2022-08-05T20:48:57.461Z,4.30
2022-08-05T20:55:56.532Z,4.25
2022-08-05T21:02:56.049Z,4.60
2022-08-05T21:09:53.648Z,4.88
2022-08-05T21:16:42.741Z,4.93
2022-08-05T21:23:37.101Z,4.80
2022-08-05T21:30:24.405Z,4.47
2022-08-05T21:37:11.536Z,5.25
2022-08-05T21:44:03.682Z,4.93
2022-08-05T21:50:54.121Z,4.53
2022-08-05T21:57:42.790Z,4.47
2022-08-05T22:04:31.204Z,4.93
2022-08-05T22:11:17.717Z,4.60
2022-08-05T22:18:03.682Z,4.60
2022-08-05T22:25:04.341Z,5.18
2022-08-05T22:32:03.651Z,4.10
2022-08-05T22:38:49.654Z,4.85
2022-08-05T22:45:37.731Z,4.57
2022-08-05T22:52:32.180Z,4.97
2022-08-05T23:06:27.921Z,4.75
2022-08-05T23:13:14.421Z,4.55
2022-08-05T23:20:03.213Z,4.70
2022-08-05T23:26:51.581Z,5.03
2022-08-05T23:34:04.226Z,4.72
2022-08-05T23:40:42.711Z,5.00
2022-08-05T23:47:47.503Z,4.70
2022-08-05T23:54:38.377Z,4.88
